Strona główna
METAR-TAF:

METAR-TAF

Lotnisko :

RAF Fairford

Fairford, Anglia

Szerokość geograficzna: 51-41N, Długość geograficzna: 001-47W, wysokość: 87 m

Aktualna obserwacja pogody

Raport powstał 22 minut temu, godzina 16:56 UTC
Cisza
Temperatura 25°C
Wilgotność 36%
Ciśnienie 1017 hPa
Rozproszone chmury na wysokości 7000 ft

METAR: EGVA 161656Z AUTO 00000KT M M SCT070 25/09 A3003 RMK AO2 SLP171 T02490088 RVRNO $

czas: 18:18 (17:18 UTC)


TAF: brakujący

Obserwacja i prognoza pogody dla ponad 4000 lotnisk (raport METAR i TAF).

Dostępne stacje oznaczono żółtymi i czerwonymi punktami na mapie.

Najedź kursorem aby zobaczyć nazwę stacji.

Kliknij aby zobaczyć obserwacje i prognozy pogody.

Aby zmienić mapę: kliknij na zielony przycisk z czarnym krzyżykiem, aby powiększyć; na zielony przycisk z myślnikiem, aby pomniejszyć; na zielone strzałki, aby przejść do map sąsiednich.


METAR-TAF: